sensor_id;sensor_type;location;lat;lon;timestamp;pressure;altitude;pressure_sealevel;temperature;humidity
28628;BME280;15815;46.760;19.604;2023-01-30T00:01:44;100987.31;;;-1.25;81.81
28628;BME280;15815;46.760;19.604;2023-01-30T00:04:11;100979.47;;;-1.32;81.92
28628;BME280;15815;46.760;19.604;2023-01-30T00:06:38;100978.53;;;-1.41;82.57
28628;BME280;15815;46.760;19.604;2023-01-30T00:09:10;100959.66;;;-1.47;82.41
28628;BME280;15815;46.760;19.604;2023-01-30T00:11:36;100965.16;;;-1.47;81.71
28628;BME280;15815;46.760;19.604;2023-01-30T00:14:04;100965.69;;;-1.45;82.22
28628;BME280;15815;46.760;19.604;2023-01-30T00:16:29;100962.41;;;-1.47;82.53
28628;BME280;15815;46.760;19.604;2023-01-30T00:18:55;100948.84;;;-1.58;82.63
28628;BME280;15815;46.760;19.604;2023-01-30T00:21:21;100948.16;;;-1.63;82.03
28628;BME280;15815;46.760;19.604;2023-01-30T00:23:46;100948.97;;;-1.63;82.58
28628;BME280;15815;46.760;19.604;2023-01-30T00:26:13;100942.41;;;-1.67;83.05
28628;BME280;15815;46.760;19.604;2023-01-30T00:28:38;100937.00;;;-1.72;82.99
28628;BME280;15815;46.760;19.604;2023-01-30T00:31:04;100953.94;;;-1.65;83.57
28628;BME280;15815;46.760;19.604;2023-01-30T00:33:30;100924.25;;;-1.81;82.87
28628;BME280;15815;46.760;19.604;2023-01-30T00:35:56;100918.94;;;-1.78;83.31
28628;BME280;15815;46.760;19.604;2023-01-30T00:38:22;100917.22;;;-1.88;83.18
28628;BME280;15815;46.760;19.604;2023-01-30T00:40:48;100940.28;;;-1.70;83.44
28628;BME280;15815;46.760;19.604;2023-01-30T00:43:16;100940.28;;;-1.70;83.68
28628;BME280;15815;46.760;19.604;2023-01-30T00:45:43;100914.16;;;-1.86;83.32
28628;BME280;15815;46.760;19.604;2023-01-30T00:48:11;100919.16;;;-1.88;83.67
28628;BME280;15815;46.760;19.604;2023-01-30T00:50:39;100932.03;;;-1.83;84.05
28628;BME280;15815;46.760;19.604;2023-01-30T00:53:05;100919.78;;;-1.91;83.44
28628;BME280;15815;46.760;19.604;2023-01-30T00:55:33;100919.38;;;-1.84;83.95
28628;BME280;15815;46.760;19.604;2023-01-30T00:57:59;100921.31;;;-1.85;83.48
28628;BME280;15815;46.760;19.604;2023-01-30T01:00:24;100909.34;;;-1.94;83.90
28628;BME280;15815;46.760;19.604;2023-01-30T01:02:55;100914.06;;;-1.95;84.61
28628;BME280;15815;46.760;19.604;2023-01-30T01:05:20;100896.31;;;-2.02;84.71
28628;BME280;15815;46.760;19.604;2023-01-30T01:07:46;100910.59;;;-2.00;84.67
28628;BME280;15815;46.760;19.604;2023-01-30T01:10:12;100898.34;;;-2.08;84.75
28628;BME280;15815;46.760;19.604;2023-01-30T01:12:37;100899.16;;;-2.07;84.78
28628;BME280;15815;46.760;19.604;2023-01-30T01:15:03;100898.56;;;-2.18;84.89
28628;BME280;15815;46.760;19.604;2023-01-30T01:17:28;100892.50;;;-2.20;85.34
28628;BME280;15815;46.760;19.604;2023-01-30T01:19:54;100895.50;;;-2.16;85.44
28628;BME280;15815;46.760;19.604;2023-01-30T01:22:19;100895.50;;;-2.16;85.33
28628;BME280;15815;46.760;19.604;2023-01-30T01:24:45;100892.75;;;-2.16;85.34
28628;BME280;15815;46.760;19.604;2023-01-30T01:27:10;100878.13;;;-2.31;85.78
28628;BME280;15815;46.760;19.604;2023-01-30T01:29:36;100893.44;;;-2.25;86.20
28628;BME280;15815;46.760;19.604;2023-01-30T01:32:02;100901.19;;;-2.27;86.59
28628;BME280;15815;46.760;19.604;2023-01-30T01:34:27;100884.25;;;-2.34;87.08
28628;BME280;15815;46.760;19.604;2023-01-30T01:36:53;100892.50;;;-2.34;87.52
28628;BME280;15815;46.760;19.604;2023-01-30T01:39:18;100864.69;;;-2.46;87.40
28628;BME280;15815;46.760;19.604;2023-01-30T01:41:44;100890.06;;;-2.35;87.33
28628;BME280;15815;46.760;19.604;2023-01-30T01:44:11;100871.19;;;-2.42;87.42
28628;BME280;15815;46.760;19.604;2023-01-30T01:46:55;100885.47;;;-2.40;87.67
28628;BME280;15815;46.760;19.604;2023-01-30T01:49:32;100885.16;;;-2.38;87.68
28628;BME280;15815;46.760;19.604;2023-01-30T01:52:10;100873.22;;;-2.47;88.22
28628;BME280;15815;46.760;19.604;2023-01-30T01:54:54;100876.78;;;-2.47;87.85
28628;BME280;15815;46.760;19.604;2023-01-30T01:57:26;100862.19;;;-2.61;88.19
28628;BME280;15815;46.760;19.604;2023-01-30T02:00:00;100873.50;;;-2.49;88.37
28628;BME280;15815;46.760;19.604;2023-01-30T02:02:28;100857.72;;;-2.57;88.41
28628;BME280;15815;46.760;19.604;2023-01-30T02:04:55;100859.94;;;-2.59;88.49
28628;BME280;15815;46.760;19.604;2023-01-30T02:07:22;100843.63;;;-2.69;88.64
28628;BME280;15815;46.760;19.604;2023-01-30T02:09:50;100851.28;;;-2.66;89.46
28628;BME280;15815;46.760;19.604;2023-01-30T02:12:16;100825.06;;;-2.77;88.67
28628;BME280;15815;46.760;19.604;2023-01-30T02:14:42;100849.56;;;-2.62;88.65
28628;BME280;15815;46.760;19.604;2023-01-30T02:17:08;100850.38;;;-2.62;88.41
28628;BME280;15815;46.760;19.604;2023-01-30T02:19:50;100836.41;;;-2.65;88.75
28628;BME280;15815;46.760;19.604;2023-01-30T02:38:39;100838.94;;;-2.69;89.07
28628;BME280;15815;46.760;19.604;2023-01-30T02:44:03;100818.13;;;-2.75;89.54
28628;BME280;15815;46.760;19.604;2023-01-30T02:46:42;100833.25;;;-2.72;89.29
28628;BME280;15815;46.760;19.604;2023-01-30T02:49:57;100822.91;;;-2.81;89.63
28628;BME280;15815;46.760;19.604;2023-01-30T02:52:07;100822.19;;;-2.86;89.45
28628;BME280;15815;46.760;19.604;2023-01-30T02:54:34;100811.19;;;-2.86;89.55
28628;BME280;15815;46.760;19.604;2023-01-30T02:56:59;100811.69;;;-2.84;89.64
28628;BME280;15815;46.760;19.604;2023-01-30T02:59:34;100815.25;;;-2.84;89.27
28628;BME280;15815;46.760;19.604;2023-01-30T03:05:20;100815.88;;;-2.87;89.84
28628;BME280;15815;46.760;19.604;2023-01-30T03:10:42;100812.41;;;-2.92;90.37
28628;BME280;15815;46.760;19.604;2023-01-30T03:13:28;100793.25;;;-2.97;90.11
28628;BME280;15815;46.760;19.604;2023-01-30T03:16:35;100790.91;;;-2.90;89.78
28628;BME280;15815;46.760;19.604;2023-01-30T03:19:03;100733.41;;;-3.19;89.45
28628;BME280;15815;46.760;19.604;2023-01-30T03:21:30;100770.44;;;-2.98;89.41
28628;BME280;15815;46.760;19.604;2023-01-30T03:23:56;100772.38;;;-2.98;89.73
28628;BME280;15815;46.760;19.604;2023-01-30T03:26:24;100769.91;;;-3.00;89.67
28628;BME280;15815;46.760;19.604;2023-01-30T03:28:51;100762.84;;;-3.06;89.89
28628;BME280;15815;46.760;19.604;2023-01-30T03:31:17;100754.41;;;-3.09;89.57
28628;BME280;15815;46.760;19.604;2023-01-30T03:33:43;100755.72;;;-3.07;90.18
28628;BME280;15815;46.760;19.604;2023-01-30T03:36:11;100730.97;;;-3.21;90.09
28628;BME280;15815;46.760;19.604;2023-01-30T03:38:37;100735.84;;;-3.18;89.75
28628;BME280;15815;46.760;19.604;2023-01-30T03:41:03;100743.19;;;-3.13;90.36
28628;BME280;15815;46.760;19.604;2023-01-30T03:43:30;100734.72;;;-3.17;90.59
28628;BME280;15815;46.760;19.604;2023-01-30T03:45:55;100745.44;;;-3.15;90.25
28628;BME280;15815;46.760;19.604;2023-01-30T03:48:21;100739.13;;;-3.16;90.67
28628;BME280;15815;46.760;19.604;2023-01-30T03:50:47;100740.84;;;-3.20;90.98
28628;BME280;15815;46.760;19.604;2023-01-30T03:53:12;100731.28;;;-3.22;90.88
28628;BME280;15815;46.760;19.604;2023-01-30T03:55:38;100730.25;;;-3.26;91.44
28628;BME280;15815;46.760;19.604;2023-01-30T03:58:04;100736.75;;;-3.22;91.44
28628;BME280;15815;46.760;19.604;2023-01-30T04:00:30;100733.50;;;-3.24;91.31
28628;BME280;15815;46.760;19.604;2023-01-30T04:02:56;100737.78;;;-3.18;90.48
28628;BME280;15815;46.760;19.604;2023-01-30T04:05:22;100720.88;;;-3.25;91.28
28628;BME280;15815;46.760;19.604;2023-01-30T04:07:48;100716.25;;;-3.30;91.84
28628;BME280;15815;46.760;19.604;2023-01-30T04:10:14;100692.22;;;-3.38;91.17
28628;BME280;15815;46.760;19.604;2023-01-30T04:12:41;100713.75;;;-3.26;91.84
28628;BME280;15815;46.760;19.604;2023-01-30T04:15:07;100710.50;;;-3.28;91.52
28628;BME280;15815;46.760;19.604;2023-01-30T04:17:36;100716.41;;;-3.21;92.53
28628;BME280;15815;46.760;19.604;2023-01-30T04:20:02;100698.44;;;-3.32;91.68
28628;BME280;15815;46.760;19.604;2023-01-30T04:22:28;100704.44;;;-3.30;91.75
28628;BME280;15815;46.760;19.604;2023-01-30T04:24:54;100689.78;;;-3.39;91.56
28628;BME280;15815;46.760;19.604;2023-01-30T04:27:19;100705.56;;;-3.31;92.39
28628;BME280;15815;46.760;19.604;2023-01-30T04:29:45;100696.41;;;-3.40;92.68
28628;BME280;15815;46.760;19.604;2023-01-30T04:32:10;100683.66;;;-3.50;92.42
28628;BME280;15815;46.760;19.604;2023-01-30T04:34:37;100697.22;;;-3.40;93.09
28628;BME280;15815;46.760;19.604;2023-01-30T04:37:02;100697.31;;;-3.45;92.15
28628;BME280;15815;46.760;19.604;2023-01-30T04:39:31;100696.78;;;-3.47;92.01
28628;BME280;15815;46.760;19.604;2023-01-30T04:41:57;100701.19;;;-3.46;92.08
28628;BME280;15815;46.760;19.604;2023-01-30T04:44:22;100708.59;;;-3.47;92.69
28628;BME280;15815;46.760;19.604;2023-01-30T04:46:51;100685.44;;;-3.59;92.80
28628;BME280;15815;46.760;19.604;2023-01-30T04:49:17;100691.47;;;-3.57;93.02
28628;BME280;15815;46.760;19.604;2023-01-30T04:51:43;100680.06;;;-3.64;92.20
28628;BME280;15815;46.760;19.604;2023-01-30T04:54:09;100696.13;;;-3.58;92.33
28628;BME280;15815;46.760;19.604;2023-01-30T04:56:34;100707.56;;;-3.51;92.63
28628;BME280;15815;46.760;19.604;2023-01-30T04:59:00;100710.63;;;-3.52;92.90
28628;BME280;15815;46.760;19.604;2023-01-30T05:01:32;100713.75;;;-3.59;92.71
28628;BME280;15815;46.760;19.604;2023-01-30T05:03:58;100719.53;;;-3.60;92.71
28628;BME280;15815;46.760;19.604;2023-01-30T05:06:24;100718.72;;;-3.61;92.33
28628;BME280;15815;46.760;19.604;2023-01-30T05:08:51;100721.97;;;-3.59;92.68
28628;BME280;15815;46.760;19.604;2023-01-30T05:11:21;100718.41;;;-3.59;92.64
28628;BME280;15815;46.760;19.604;2023-01-30T05:13:47;100708.13;;;-3.67;92.87
28628;BME280;15815;46.760;19.604;2023-01-30T05:16:16;100686.94;;;-3.81;92.62
28628;BME280;15815;46.760;19.604;2023-01-30T05:18:42;100709.44;;;-3.65;92.85
28628;BME280;15815;46.760;19.604;2023-01-30T05:21:12;100712.19;;;-3.65;93.01
28628;BME280;15815;46.760;19.604;2023-01-30T05:23:41;100713.41;;;-3.71;93.46
28628;BME280;15815;46.760;19.604;2023-01-30T05:26:07;100711.69;;;-3.67;94.01
28628;BME280;15815;46.760;19.604;2023-01-30T05:28:34;100703.63;;;-3.77;94.14
28628;BME280;15815;46.760;19.604;2023-01-30T05:31:04;100707.09;;;-3.71;94.15
28628;BME280;15815;46.760;19.604;2023-01-30T05:33:30;100702.94;;;-3.69;94.05
28628;BME280;15815;46.760;19.604;2023-01-30T05:35:57;100676.59;;;-3.89;93.88
28628;BME280;15815;46.760;19.604;2023-01-30T05:38:23;100695.09;;;-3.76;93.81
28628;BME280;15815;46.760;19.604;2023-01-30T05:41:05;100691.09;;;-3.83;93.92
28628;BME280;15815;46.760;19.604;2023-01-30T05:43:31;100705.78;;;-3.74;93.41
28628;BME280;15815;46.760;19.604;2023-01-30T05:45:58;100704.66;;;-3.73;93.48
28628;BME280;15815;46.760;19.604;2023-01-30T05:48:24;100715.44;;;-3.77;93.82
28628;BME280;15815;46.760;19.604;2023-01-30T05:50:51;100707.28;;;-3.82;93.83
28628;BME280;15815;46.760;19.604;2023-01-30T05:53:19;100708.00;;;-3.76;93.57
28628;BME280;15815;46.760;19.604;2023-01-30T05:55:44;100695.47;;;-3.82;93.85
28628;BME280;15815;46.760;19.604;2023-01-30T05:58:10;100690.78;;;-3.82;93.85
28628;BME280;15815;46.760;19.604;2023-01-30T06:00:37;100688.91;;;-3.86;93.78
28628;BME280;15815;46.760;19.604;2023-01-30T06:03:03;100666.59;;;-3.98;94.08
28628;BME280;15815;46.760;19.604;2023-01-30T06:05:29;100669.88;;;-3.96;93.90
28628;BME280;15815;46.760;19.604;2023-01-30T06:07:54;100694.72;;;-3.88;94.00
28628;BME280;15815;46.760;19.604;2023-01-30T06:10:20;100688.09;;;-3.87;94.14
28628;BME280;15815;46.760;19.604;2023-01-30T06:12:45;100691.97;;;-3.88;94.65
28628;BME280;15815;46.760;19.604;2023-01-30T06:15:11;100673.66;;;-3.92;94.89
28628;BME280;15815;46.760;19.604;2023-01-30T06:17:41;100695.09;;;-3.76;95.28
28628;BME280;15815;46.760;19.604;2023-01-30T06:20:07;100694.28;;;-3.76;96.01
28628;BME280;15815;46.760;19.604;2023-01-30T06:22:33;100689.00;;;-3.72;95.62
28628;BME280;15815;46.760;19.604;2023-01-30T06:24:59;100677.69;;;-3.71;96.25
28628;BME280;15815;46.760;19.604;2023-01-30T06:27:27;100672.09;;;-3.66;96.36
28628;BME280;15815;46.760;19.604;2023-01-30T06:29:52;100697.50;;;-3.42;96.03
28628;BME280;15815;46.760;19.604;2023-01-30T06:32:18;100678.31;;;-3.28;96.33
28628;BME280;15815;46.760;19.604;2023-01-30T06:34:44;100661.22;;;-3.11;96.18
28628;BME280;15815;46.760;19.604;2023-01-30T06:37:10;100689.03;;;-2.71;95.65
28628;BME280;15815;46.760;19.604;2023-01-30T06:39:35;100686.66;;;-2.51;95.48
28628;BME280;15815;46.760;19.604;2023-01-30T06:42:01;100689.06;;;-2.35;95.22
28628;BME280;15815;46.760;19.604;2023-01-30T06:44:27;100684.44;;;-2.12;94.71
28628;BME280;15815;46.760;19.604;2023-01-30T06:46:53;100677.06;;;-1.81;94.77
28628;BME280;15815;46.760;19.604;2023-01-30T06:49:19;100701.25;;;-1.56;94.50
28628;BME280;15815;46.760;19.604;2023-01-30T06:51:45;100698.16;;;-1.32;94.75
28628;BME280;15815;46.760;19.604;2023-01-30T06:54:11;100705.28;;;-1.08;94.29
28628;BME280;15815;46.760;19.604;2023-01-30T06:56:36;100683.78;;;-1.20;94.13
28628;BME280;15815;46.760;19.604;2023-01-30T06:59:02;100696.03;;;-1.04;93.74
28628;BME280;15815;46.760;19.604;2023-01-30T07:01:28;100694.28;;;-0.51;93.74
28628;BME280;15815;46.760;19.604;2023-01-30T07:03:53;100705.25;;;0.32;92.42
28628;BME280;15815;46.760;19.604;2023-01-30T07:06:39;100682.19;;;0.91;90.55
28628;BME280;15815;46.760;19.604;2023-01-30T07:09:23;100713.50;;;1.80;91.00
28628;BME280;15815;46.760;19.604;2023-01-30T07:11:48;100711.25;;;2.24;89.57
28628;BME280;15815;46.760;19.604;2023-01-30T07:14:14;100687.78;;;2.55;89.09
28628;BME280;15815;46.760;19.604;2023-01-30T07:16:39;100692.88;;;2.98;87.47
28628;BME280;15815;46.760;19.604;2023-01-30T07:19:05;100697.69;;;3.58;86.91
28628;BME280;15815;46.760;19.604;2023-01-30T07:21:31;100699.72;;;3.98;84.58
28628;BME280;15815;46.760;19.604;2023-01-30T07:23:56;100702.28;;;4.59;86.21
28628;BME280;15815;46.760;19.604;2023-01-30T07:26:25;100692.75;;;4.88;84.78
28628;BME280;15815;46.760;19.604;2023-01-30T07:28:50;100697.81;;;5.14;83.94
28628;BME280;15815;46.760;19.604;2023-01-30T07:31:16;100670.38;;;5.47;84.32
28628;BME280;15815;46.760;19.604;2023-01-30T07:33:41;100690.19;;;6.09;83.79
28628;BME280;15815;46.760;19.604;2023-01-30T07:36:07;100694.03;;;6.39;82.98
28628;BME280;15815;46.760;19.604;2023-01-30T07:38:34;100691.84;;;6.91;83.41
28628;BME280;15815;46.760;19.604;2023-01-30T07:41:00;100685.63;;;7.01;79.46
28628;BME280;15815;46.760;19.604;2023-01-30T07:43:25;100673.75;;;7.53;82.83
28628;BME280;15815;46.760;19.604;2023-01-30T07:45:53;100685.16;;;7.94;77.36
28628;BME280;15815;46.760;19.604;2023-01-30T07:48:19;100665.31;;;8.02;73.05
28628;BME280;15815;46.760;19.604;2023-01-30T07:50:45;100665.88;;;8.45;77.51
28628;BME280;15815;46.760;19.604;2023-01-30T07:53:13;100667.91;;;8.48;77.93
28628;BME280;15815;46.760;19.604;2023-01-30T07:55:40;100670.38;;;8.87;76.89
28628;BME280;15815;46.760;19.604;2023-01-30T07:58:05;100667.28;;;9.43;77.34
28628;BME280;15815;46.760;19.604;2023-01-30T08:00:31;100661.09;;;9.71;72.55
28628;BME280;15815;46.760;19.604;2023-01-30T08:02:57;100666.91;;;10.07;74.81
28628;BME280;15815;46.760;19.604;2023-01-30T08:05:23;100643.59;;;9.92;73.06
28628;BME280;15815;46.760;19.604;2023-01-30T08:07:48;100647.81;;;10.34;74.30
28628;BME280;15815;46.760;19.604;2023-01-30T08:10:14;100649.66;;;10.08;74.41
28628;BME280;15815;46.760;19.604;2023-01-30T08:12:40;100660.03;;;10.84;72.25
28628;BME280;15815;46.760;19.604;2023-01-30T08:15:09;100652.44;;;11.17;66.44
28628;BME280;15815;46.760;19.604;2023-01-30T08:17:35;100652.06;;;11.11;70.58
28628;BME280;15815;46.760;19.604;2023-01-30T08:20:00;100656.09;;;11.60;65.93
28628;BME280;15815;46.760;19.604;2023-01-30T08:22:27;100650.44;;;11.67;68.50
28628;BME280;15815;46.760;19.604;2023-01-30T08:24:53;100650.41;;;11.99;65.97
28628;BME280;15815;46.760;19.604;2023-01-30T08:27:18;100649.28;;;11.79;58.79
28628;BME280;15815;46.760;19.604;2023-01-30T08:29:44;100637.59;;;11.52;67.98
28628;BME280;15815;46.760;19.604;2023-01-30T08:32:10;100642.38;;;10.94;59.24
28628;BME280;15815;46.760;19.604;2023-01-30T08:34:35;100638.28;;;10.56;64.49
28628;BME280;15815;46.760;19.604;2023-01-30T08:37:01;100625.44;;;10.59;62.78
28628;BME280;15815;46.760;19.604;2023-01-30T08:39:27;100605.25;;;10.25;63.10
28628;BME280;15815;46.760;19.604;2023-01-30T08:41:53;100618.03;;;10.18;60.00
28628;BME280;15815;46.760;19.604;2023-01-30T08:44:18;100611.38;;;10.62;57.52
28628;BME280;15815;46.760;19.604;2023-01-30T08:46:44;100625.94;;;11.21;61.06
28628;BME280;15815;46.760;19.604;2023-01-30T08:49:10;100605.47;;;11.24;60.72
28628;BME280;15815;46.760;19.604;2023-01-30T08:51:35;100609.44;;;11.44;61.33
28628;BME280;15815;46.760;19.604;2023-01-30T08:54:02;100589.38;;;11.28;55.85
28628;BME280;15815;46.760;19.604;2023-01-30T08:56:27;100607.38;;;11.77;59.97
28628;BME280;15815;46.760;19.604;2023-01-30T08:58:53;100590.69;;;12.43;56.61
28628;BME280;15815;46.760;19.604;2023-01-30T09:01:18;100583.31;;;12.63;61.15
28628;BME280;15815;46.760;19.604;2023-01-30T09:03:50;100577.06;;;12.27;55.73
28628;BME280;15815;46.760;19.604;2023-01-30T09:06:16;100593.41;;;12.57;59.62
28628;BME280;15815;46.760;19.604;2023-01-30T09:08:41;100589.16;;;12.21;57.71
28628;BME280;15815;46.760;19.604;2023-01-30T09:11:09;100586.53;;;11.35;53.26
28628;BME280;15815;46.760;19.604;2023-01-30T09:13:35;100573.25;;;11.43;59.61
28628;BME280;15815;46.760;19.604;2023-01-30T09:16:01;100564.03;;;10.93;55.48
28628;BME280;15815;46.760;19.604;2023-01-30T09:18:27;100544.34;;;10.93;54.03
28628;BME280;15815;46.760;19.604;2023-01-30T09:21:01;100552.75;;;10.61;52.21
28628;BME280;15815;46.760;19.604;2023-01-30T09:23:27;100541.69;;;9.88;52.88
28628;BME280;15815;46.760;19.604;2023-01-30T09:25:52;100546.28;;;9.48;54.48
28628;BME280;15815;46.760;19.604;2023-01-30T09:28:18;100545.47;;;9.51;54.17
28628;BME280;15815;46.760;19.604;2023-01-30T09:30:44;100560.56;;;9.95;55.91
28628;BME280;15815;46.760;19.604;2023-01-30T09:33:09;100560.63;;;10.12;53.40
28628;BME280;15815;46.760;19.604;2023-01-30T09:35:35;100559.41;;;10.13;55.69
28628;BME280;15815;46.760;19.604;2023-01-30T09:38:05;100553.72;;;9.92;52.68
28628;BME280;15815;46.760;19.604;2023-01-30T09:40:31;100536.41;;;9.83;54.71
28628;BME280;15815;46.760;19.604;2023-01-30T09:49:00;100541.19;;;9.68;50.04
28628;BME280;15815;46.760;19.604;2023-01-30T09:51:42;100529.28;;;10.03;50.13
28628;BME280;15815;46.760;19.604;2023-01-30T09:54:25;100533.06;;;10.50;52.64
28628;BME280;15815;46.760;19.604;2023-01-30T10:05:09;100477.38;;;8.89;53.74
28628;BME280;15815;46.760;19.604;2023-01-30T10:08:00;100505.75;;;8.80;51.35
28628;BME280;15815;46.760;19.604;2023-01-30T10:21:39;100489.22;;;8.68;55.11
28628;BME280;15815;46.760;19.604;2023-01-30T10:24:18;100469.09;;;8.18;52.95
28628;BME280;15815;46.760;19.604;2023-01-30T10:26:49;100436.13;;;7.64;56.49
28628;BME280;15815;46.760;19.604;2023-01-30T10:29:22;100447.63;;;7.55;53.73
28628;BME280;15815;46.760;19.604;2023-01-30T10:32:03;100434.19;;;7.38;54.60
28628;BME280;15815;46.760;19.604;2023-01-30T10:34:34;100429.47;;;7.12;56.74
28628;BME280;15815;46.760;19.604;2023-01-30T10:42:27;100418.03;;;7.54;55.06
28628;BME280;15815;46.760;19.604;2023-01-30T10:45:05;100414.97;;;7.66;56.04
28628;BME280;15815;46.760;19.604;2023-01-30T10:47:45;100416.47;;;7.94;59.22
28628;BME280;15815;46.760;19.604;2023-01-30T10:50:18;100399.81;;;8.08;56.63
28628;BME280;15815;46.760;19.604;2023-01-30T10:53:09;100398.25;;;8.55;55.36
28628;BME280;15815;46.760;19.604;2023-01-30T11:00:42;100398.09;;;9.89;53.60
28628;BME280;15815;46.760;19.604;2023-01-30T11:06:05;100380.09;;;10.58;52.43
28628;BME280;15815;46.760;19.604;2023-01-30T11:08:33;100385.69;;;10.65;55.90
28628;BME280;15815;46.760;19.604;2023-01-30T11:11:28;100361.97;;;10.84;51.87
28628;BME280;15815;46.760;19.604;2023-01-30T11:14:09;100368.38;;;10.95;50.53
28628;BME280;15815;46.760;19.604;2023-01-30T11:16:52;100373.25;;;10.09;51.45
28628;BME280;15815;46.760;19.604;2023-01-30T11:19:21;100356.78;;;10.04;53.14
28628;BME280;15815;46.760;19.604;2023-01-30T11:22:00;100350.78;;;9.95;53.04
28628;BME280;15815;46.760;19.604;2023-01-30T11:24:39;100338.56;;;9.20;50.45
28628;BME280;15815;46.760;19.604;2023-01-30T11:27:10;100339.91;;;8.71;50.71
28628;BME280;15815;46.760;19.604;2023-01-30T11:29:39;100332.50;;;8.42;52.84
28628;BME280;15815;46.760;19.604;2023-01-30T11:32:11;100308.78;;;8.25;54.15
28628;BME280;15815;46.760;19.604;2023-01-30T11:34:41;100320.28;;;8.13;54.47
28628;BME280;15815;46.760;19.604;2023-01-30T11:37:22;100296.78;;;7.77;53.85
28628;BME280;15815;46.760;19.604;2023-01-30T11:39:51;100297.19;;;7.38;55.23
28628;BME280;15815;46.760;19.604;2023-01-30T11:42:19;100298.94;;;7.12;53.79
28628;BME280;15815;46.760;19.604;2023-01-30T11:44:44;100292.38;;;7.01;54.69
28628;BME280;15815;46.760;19.604;2023-01-30T11:47:23;100292.03;;;7.06;54.69
28628;BME280;15815;46.760;19.604;2023-01-30T11:49:49;100294.44;;;6.74;54.29
28628;BME280;15815;46.760;19.604;2023-01-30T11:52:18;100279.88;;;6.58;55.06
28628;BME280;15815;46.760;19.604;2023-01-30T11:54:46;100275.03;;;6.55;55.93
28628;BME280;15815;46.760;19.604;2023-01-30T11:57:16;100279.63;;;6.70;56.41
28628;BME280;15815;46.760;19.604;2023-01-30T11:59:52;100282.03;;;6.72;56.32
28628;BME280;15815;46.760;19.604;2023-01-30T12:02:32;100277.34;;;6.49;56.45
28628;BME280;15815;46.760;19.604;2023-01-30T12:05:05;100259.31;;;6.43;56.55
28628;BME280;15815;46.760;19.604;2023-01-30T12:07:35;100250.47;;;6.38;57.48
28628;BME280;15815;46.760;19.604;2023-01-30T12:12:48;100252.16;;;6.16;56.36
28628;BME280;15815;46.760;19.604;2023-01-30T12:15:21;100237.34;;;6.12;57.04
28628;BME280;15815;46.760;19.604;2023-01-30T12:18:22;100242.13;;;6.11;55.54
28628;BME280;15815;46.760;19.604;2023-01-30T12:21:08;100234.13;;;6.10;58.46
28628;BME280;15815;46.760;19.604;2023-01-30T12:23:42;100226.53;;;6.67;58.07
28628;BME280;15815;46.760;19.604;2023-01-30T12:26:29;100226.59;;;6.74;55.45
28628;BME280;15815;46.760;19.604;2023-01-30T12:34:25;100194.69;;;7.12;56.74
28628;BME280;15815;46.760;19.604;2023-01-30T12:42:22;100204.94;;;6.64;54.41
28628;BME280;15815;46.760;19.604;2023-01-30T12:44:56;100203.13;;;6.82;55.72
28628;BME280;15815;46.760;19.604;2023-01-30T12:47:35;100201.34;;;7.00;55.79
28628;BME280;15815;46.760;19.604;2023-01-30T12:55:48;100204.84;;;7.31;57.14
28628;BME280;15815;46.760;19.604;2023-01-30T12:57:59;100183.81;;;7.44;55.14
28628;BME280;15815;46.760;19.604;2023-01-30T13:08:45;100166.44;;;7.21;55.63
28628;BME280;15815;46.760;19.604;2023-01-30T13:14:33;100162.84;;;6.83;54.55
28628;BME280;15815;46.760;19.604;2023-01-30T13:17:32;100155.22;;;6.80;55.67
28628;BME280;15815;46.760;19.604;2023-01-30T13:20:14;100160.44;;;6.81;56.17
28628;BME280;15815;46.760;19.604;2023-01-30T13:23:26;100154.31;;;6.69;55.05
28628;BME280;15815;46.760;19.604;2023-01-30T13:26:06;100150.97;;;6.56;55.69
28628;BME280;15815;46.760;19.604;2023-01-30T13:28:43;100141.19;;;6.36;56.14
28628;BME280;15815;46.760;19.604;2023-01-30T13:31:13;100112.38;;;5.98;57.45
28628;BME280;15815;46.760;19.604;2023-01-30T13:33:42;100119.09;;;5.94;58.61
28628;BME280;15815;46.760;19.604;2023-01-30T13:36:25;100126.38;;;6.02;58.31
28628;BME280;15815;46.760;19.604;2023-01-30T13:39:38;100123.75;;;5.86;57.90
28628;BME280;15815;46.760;19.604;2023-01-30T13:42:12;100117.53;;;5.70;58.43
28628;BME280;15815;46.760;19.604;2023-01-30T13:44:42;100122.94;;;5.85;59.49
28628;BME280;15815;46.760;19.604;2023-01-30T13:52:47;100130.56;;;5.62;60.22
28628;BME280;15815;46.760;19.604;2023-01-30T13:58:25;100115.19;;;5.45;60.94
28628;BME280;15815;46.760;19.604;2023-01-30T14:00:54;100134.25;;;5.43;61.30
28628;BME280;15815;46.760;19.604;2023-01-30T14:03:29;100136.19;;;5.39;61.97
28628;BME280;15815;46.760;19.604;2023-01-30T14:06:00;100128.97;;;5.35;62.17
28628;BME280;15815;46.760;19.604;2023-01-30T14:09:16;100122.19;;;5.36;61.09
28628;BME280;15815;46.760;19.604;2023-01-30T14:11:55;100123.34;;;5.31;63.33
28628;BME280;15815;46.760;19.604;2023-01-30T14:14:30;100119.03;;;5.37;62.94
28628;BME280;15815;46.760;19.604;2023-01-30T14:17:10;100114.16;;;5.31;62.61
28628;BME280;15815;46.760;19.604;2023-01-30T14:19:56;100116.53;;;5.28;62.33
28628;BME280;15815;46.760;19.604;2023-01-30T14:22:48;100115.72;;;5.28;63.91
28628;BME280;15815;46.760;19.604;2023-01-30T14:32:59;100090.03;;;5.15;64.18
28628;BME280;15815;46.760;19.604;2023-01-30T14:35:32;100079.91;;;5.04;65.35
28628;BME280;15815;46.760;19.604;2023-01-30T14:38:18;100058.84;;;5.06;65.50
28628;BME280;15815;46.760;19.604;2023-01-30T14:49:03;100074.66;;;4.76;65.83
28628;BME280;15815;46.760;19.604;2023-01-30T14:59:45;100038.69;;;4.44;65.28
28628;BME280;15815;46.760;19.604;2023-01-30T15:04:45;100050.56;;;4.41;65.55
28628;BME280;15815;46.760;19.604;2023-01-30T15:07:19;100044.91;;;4.38;66.42